createdAt,value
2022-08-09T00:00:21.201Z,16.60
2022-08-09T00:02:49.899Z,16.40
2022-08-09T00:06:18.145Z,16.40
2022-08-09T00:08:11.105Z,16.40
2022-08-09T00:10:40.661Z,16.40
2022-08-09T00:13:17.135Z,16.30
2022-08-09T00:16:00.062Z,16.30
2022-08-09T00:18:35.558Z,16.30
2022-08-09T00:21:08.899Z,16.20
2022-08-09T00:23:56.553Z,16.10
2022-08-09T00:26:29.996Z,16.10
2022-08-09T00:29:01.846Z,16.00
2022-08-09T00:31:56.898Z,16.00
2022-08-09T00:34:19.037Z,16.00
2022-08-09T00:36:48.253Z,15.90
2022-08-09T00:40:01.829Z,15.90
2022-08-09T00:44:19.135Z,15.90
2022-08-09T00:44:50.878Z,15.80
2022-08-09T00:47:20.892Z,15.70
2022-08-09T00:49:54.610Z,15.70
2022-08-09T00:52:30.572Z,15.60
2022-08-09T00:55:02.007Z,15.60
2022-08-09T00:57:34.331Z,15.50
2022-08-09T01:00:21.331Z,15.40
2022-08-09T01:02:53.764Z,15.40
2022-08-09T01:05:54.927Z,15.40
2022-08-09T01:08:55.774Z,15.40
2022-08-09T01:11:23.999Z,15.40
2022-08-09T01:14:04.283Z,15.30
2022-08-09T01:16:35.893Z,15.20
2022-08-09T01:19:17.142Z,15.10
2022-08-09T01:22:21.360Z,16.90
2022-08-09T01:25:12.526Z,15.10
2022-08-09T01:27:41.392Z,15.00
2022-08-09T01:30:28.788Z,15.00
2022-08-09T01:32:59.375Z,14.90
2022-08-09T01:35:51.841Z,14.90
2022-08-09T01:38:24.533Z,14.90
2022-08-09T01:41:04.952Z,14.90
2022-08-09T01:43:50.041Z,14.80
2022-08-09T01:46:47.199Z,14.80
2022-08-09T01:49:17.031Z,14.80
2022-08-09T01:51:53.491Z,14.70
2022-08-09T01:54:25.879Z,14.70
2022-08-09T01:56:54.756Z,14.60
2022-08-09T01:59:24.370Z,14.60
2022-08-09T02:02:00.135Z,14.70
2022-08-09T02:04:30.700Z,14.60
2022-08-09T02:07:18.557Z,14.50
2022-08-09T02:10:06.880Z,14.40
2022-08-09T02:12:35.421Z,14.30
2022-08-09T02:15:06.386Z,14.30
2022-08-09T02:18:00.873Z,14.30
2022-08-09T02:20:26.494Z,14.30
2022-08-09T02:23:10.275Z,14.30
2022-08-09T02:25:42.246Z,14.30
2022-08-09T02:28:18.192Z,14.20
2022-08-09T02:30:52.158Z,14.20
2022-08-09T02:33:23.619Z,14.20
2022-08-09T02:36:18.613Z,14.10
2022-08-09T02:38:51.044Z,14.00
2022-08-09T02:41:24.434Z,14.00
2022-08-09T02:43:55.132Z,14.00
2022-08-09T02:46:28.829Z,14.00
2022-08-09T02:49:00.533Z,14.00
2022-08-09T02:51:37.022Z,14.00
2022-08-09T02:54:14.075Z,14.00
2022-08-09T02:56:48.651Z,13.90
2022-08-09T02:59:25.829Z,13.90
2022-08-09T03:02:12.340Z,13.80
2022-08-09T03:04:46.681Z,13.80
2022-08-09T03:07:18.927Z,13.80
2022-08-09T03:09:54.180Z,13.80
2022-08-09T03:12:26.072Z,13.80
2022-08-09T03:14:55.120Z,13.70
2022-08-09T03:17:26.562Z,13.70
2022-08-09T03:20:05.366Z,13.70
2022-08-09T03:22:41.923Z,13.70
2022-08-09T03:25:27.012Z,13.70
2022-08-09T03:28:00.892Z,13.70
2022-08-09T03:30:29.624Z,13.60
2022-08-09T03:33:13.019Z,13.60
2022-08-09T03:36:13.618Z,13.50
2022-08-09T03:38:35.775Z,13.40
2022-08-09T03:41:04.591Z,13.40
2022-08-09T03:43:33.048Z,13.40
2022-08-09T03:46:20.084Z,13.40
2022-08-09T03:48:57.537Z,13.40
2022-08-09T03:51:55.814Z,13.30
2022-08-09T03:54:15.065Z,13.20
2022-08-09T03:56:44.805Z,13.20
2022-08-09T03:59:20.945Z,13.20
2022-08-09T04:01:56.748Z,13.20
2022-08-09T04:04:32.594Z,13.20
2022-08-09T04:07:04.129Z,13.10
2022-08-09T04:09:47.971Z,13.00
2022-08-09T04:12:33.182Z,12.90
2022-08-09T04:15:02.381Z,12.90
2022-08-09T04:17:39.413Z,12.90
2022-08-09T04:20:12.322Z,12.80
2022-08-09T04:22:41.083Z,12.80
2022-08-09T04:25:11.430Z,12.80
2022-08-09T04:27:41.611Z,12.70
2022-08-09T04:30:14.419Z,12.70
2022-08-09T04:32:45.852Z,12.70
2022-08-09T04:35:13.898Z,12.80
2022-08-09T04:37:46.031Z,12.80
2022-08-09T04:40:19.383Z,12.70
2022-08-09T04:42:56.750Z,12.70
2022-08-09T04:45:24.067Z,12.80
2022-08-09T04:48:01.169Z,12.80
2022-08-09T04:50:31.716Z,12.80
2022-08-09T04:53:00.775Z,12.90
2022-08-09T04:55:27.733Z,12.80
2022-08-09T04:58:09.680Z,12.80
2022-08-09T05:00:37.158Z,12.80
2022-08-09T05:03:30.171Z,12.80
2022-08-09T05:06:06.687Z,12.80
2022-08-09T05:08:34.924Z,12.80
2022-08-09T05:11:02.445Z,12.90
2022-08-09T05:13:33.062Z,12.90
2022-08-09T05:16:00.951Z,12.90
2022-08-09T05:18:38.874Z,12.90
2022-08-09T05:21:24.683Z,13.00
2022-08-09T05:24:00.692Z,13.10
2022-08-09T05:26:45.822Z,15.40
2022-08-09T05:29:23.878Z,13.30
2022-08-09T05:31:58.347Z,13.40
2022-08-09T05:34:32.648Z,13.40
2022-08-09T05:37:02.449Z,13.50
2022-08-09T05:39:36.378Z,13.60
2022-08-09T05:42:17.793Z,13.70
2022-08-09T05:44:51.121Z,13.90
2022-08-09T05:47:22.942Z,14.00
2022-08-09T05:50:23.498Z,14.10
2022-08-09T05:52:40.336Z,14.30
2022-08-09T05:55:20.679Z,14.60
2022-08-09T05:57:56.145Z,15.00
2022-08-09T06:00:28.774Z,14.90
2022-08-09T06:03:03.327Z,15.10
2022-08-09T06:05:57.495Z,15.30
2022-08-09T06:08:25.018Z,15.60
2022-08-09T06:10:56.135Z,16.10
2022-08-09T06:13:24.719Z,16.50
2022-08-09T06:15:52.937Z,17.10
2022-08-09T06:18:25.315Z,17.70
2022-08-09T06:20:58.367Z,18.30
2022-08-09T06:23:57.302Z,18.90
2022-08-09T06:26:20.052Z,19.50
2022-08-09T06:29:00.504Z,20.00
2022-08-09T06:31:40.221Z,20.50
2022-08-09T06:34:22.569Z,20.90
2022-08-09T06:36:57.384Z,21.30
2022-08-09T06:39:48.095Z,21.60
2022-08-09T06:42:14.423Z,21.90
2022-08-09T06:44:41.646Z,22.10
2022-08-09T06:47:10.638Z,22.30
2022-08-09T06:50:11.556Z,22.20
2022-08-09T06:52:25.224Z,22.20
2022-08-09T06:54:54.144Z,22.40
2022-08-09T06:57:25.789Z,22.60
2022-08-09T07:00:50.762Z,22.50
2022-08-09T07:02:56.928Z,22.40
2022-08-09T07:05:53.587Z,22.30
2022-08-09T07:08:13.127Z,22.30
2022-08-09T07:10:41.216Z,22.20
2022-08-09T07:13:28.265Z,22.10
2022-08-09T07:16:42.389Z,22.00
2022-08-09T07:18:42.963Z,21.80
2022-08-09T07:21:10.506Z,21.90
2022-08-09T07:23:56.752Z,21.90
2022-08-09T07:26:25.540Z,22.20
2022-08-09T07:29:08.489Z,22.70
2022-08-09T07:31:45.893Z,23.10
2022-08-09T07:34:20.108Z,23.10
2022-08-09T07:36:49.296Z,23.20
2022-08-09T07:39:20.177Z,23.30
2022-08-09T07:42:04.326Z,23.60
2022-08-09T07:44:50.768Z,23.40
2022-08-09T07:47:21.083Z,23.40
2022-08-09T07:50:05.454Z,23.80
2022-08-09T07:52:36.705Z,24.00
2022-08-09T07:55:09.520Z,24.30
2022-08-09T07:57:37.219Z,24.60
2022-08-09T08:00:20.589Z,24.90
2022-08-09T08:03:08.160Z,24.90
2022-08-09T08:05:53.609Z,24.80
2022-08-09T08:09:02.144Z,24.70
2022-08-09T08:12:09.403Z,24.80
2022-08-09T08:13:56.681Z,24.90
2022-08-09T08:16:31.445Z,24.80
2022-08-09T08:18:59.281Z,24.80
2022-08-09T08:21:26.595Z,24.40
2022-08-09T08:23:55.879Z,24.30
2022-08-09T08:26:26.699Z,24.00
2022-08-09T08:29:09.489Z,23.90
2022-08-09T08:32:02.400Z,23.90
2022-08-09T08:34:25.428Z,24.00
2022-08-09T08:36:52.780Z,24.30
2022-08-09T08:39:22.191Z,24.30
2022-08-09T08:41:52.425Z,24.10
2022-08-09T08:44:26.742Z,24.30
2022-08-09T08:47:02.749Z,24.60
2022-08-09T08:49:46.992Z,24.80
2022-08-09T08:52:48.612Z,25.10
2022-08-09T08:55:05.567Z,25.30
2022-08-09T08:57:34.698Z,25.50
2022-08-09T09:00:13.150Z,25.60
2022-08-09T09:02:52.628Z,25.60
2022-08-09T09:05:57.377Z,25.70
2022-08-09T09:08:30.588Z,25.60
2022-08-09T09:11:01.985Z,25.60
2022-08-09T09:13:34.730Z,25.60
2022-08-09T09:16:29.721Z,25.70
2022-08-09T09:19:37.665Z,25.70
2022-08-09T09:22:16.928Z,25.70
2022-08-09T09:25:27.715Z,25.70
2022-08-09T09:28:06.277Z,25.70
2022-08-09T09:30:40.559Z,25.80
2022-08-09T09:33:15.395Z,25.80
2022-08-09T09:36:03.938Z,25.90
2022-08-09T09:38:50.664Z,25.90
2022-08-09T09:41:27.715Z,25.70
2022-08-09T09:44:11.721Z,25.60
2022-08-09T09:46:50.607Z,25.60
2022-08-09T09:49:49.946Z,25.50
2022-08-09T09:52:16.514Z,25.70
2022-08-09T09:55:07.904Z,25.80
2022-08-09T09:58:02.799Z,25.80
2022-08-09T10:00:31.528Z,26.00
2022-08-09T10:02:59.687Z,26.10
2022-08-09T10:06:03.355Z,26.10
2022-08-09T10:08:28.118Z,26.10
2022-08-09T10:10:55.835Z,26.20
2022-08-09T10:13:24.713Z,26.20
2022-08-09T10:16:56.923Z,26.10
2022-08-09T10:19:00.131Z,26.00
2022-08-09T10:21:27.673Z,26.00
2022-08-09T10:23:57.234Z,26.00
2022-08-09T10:26:28.204Z,26.20
2022-08-09T10:29:37.219Z,26.30
2022-08-09T10:34:32.754Z,26.30
2022-08-09T10:37:01.178Z,26.30
2022-08-09T10:39:29.233Z,26.40
2022-08-09T10:41:56.318Z,26.50
2022-08-09T10:44:28.060Z,26.20
2022-08-09T10:48:16.189Z,26.10
2022-08-09T10:50:30.761Z,26.10
2022-08-09T10:53:17.155Z,26.30
2022-08-09T10:55:55.390Z,26.50
2022-08-09T10:58:34.795Z,26.50
2022-08-09T11:03:06.713Z,26.40
2022-08-09T11:04:28.264Z,26.00
2022-08-09T11:06:59.627Z,26.20
2022-08-09T11:09:41.401Z,26.40
2022-08-09T11:12:29.422Z,26.60
2022-08-09T11:14:59.010Z,26.60
2022-08-09T11:17:26.287Z,26.60
2022-08-09T11:20:22.303Z,26.70
2022-08-09T11:22:55.294Z,26.80
2022-08-09T11:25:47.624Z,26.70
2022-08-09T11:28:55.828Z,26.60
2022-08-09T11:31:50.334Z,26.70
2022-08-09T11:34:36.260Z,26.70
2022-08-09T11:37:07.492Z,26.90
2022-08-09T11:40:05.923Z,26.90
2022-08-09T11:42:50.174Z,27.10
2022-08-09T11:45:23.074Z,27.00
2022-08-09T11:48:08.193Z,26.70
2022-08-09T11:51:19.325Z,26.70
2022-08-09T11:53:57.797Z,26.50
2022-08-09T11:56:42.853Z,26.80
2022-08-09T11:59:34.113Z,27.20
2022-08-09T12:02:18.148Z,27.30
2022-08-09T12:04:51.676Z,27.40
2022-08-09T12:07:28.827Z,27.50
2022-08-09T12:10:14.048Z,27.60
2022-08-09T12:12:55.935Z,27.60
2022-08-09T12:15:48.921Z,27.70
2022-08-09T12:18:30.233Z,27.40
2022-08-09T12:21:00.626Z,27.50
2022-08-09T12:23:56.526Z,27.70
2022-08-09T12:26:19.777Z,27.70
2022-08-09T12:29:13.368Z,27.60
2022-08-09T12:32:01.881Z,27.60
2022-08-09T12:34:36.664Z,27.70
2022-08-09T12:37:21.646Z,27.70
2022-08-09T12:40:27.406Z,27.40
2022-08-09T12:42:55.827Z,27.20
2022-08-09T12:45:32.422Z,27.40
2022-08-09T12:48:03.472Z,27.40
2022-08-09T12:50:31.176Z,27.30
2022-08-09T12:53:18.066Z,27.60
2022-08-09T12:56:16.204Z,27.60
2022-08-09T12:58:34.317Z,27.70
2022-08-09T13:01:26.601Z,27.90
2022-08-09T13:04:12.194Z,28.00
2022-08-09T13:06:56.398Z,28.00
2022-08-09T13:09:25.791Z,28.00
2022-08-09T13:12:05.001Z,28.10
2022-08-09T13:14:40.808Z,28.30
2022-08-09T13:17:44.149Z,28.40
2022-08-09T13:20:13.976Z,28.20
2022-08-09T13:23:05.706Z,28.20
2022-08-09T13:25:54.669Z,28.10
2022-08-09T13:28:35.807Z,28.10
2022-08-09T13:32:17.562Z,28.30
2022-08-09T13:34:01.978Z,28.60
2022-08-09T13:36:41.540Z,28.60
2022-08-09T13:41:17.595Z,28.60
2022-08-09T13:42:03.086Z,28.50
2022-08-09T13:44:31.057Z,28.30
2022-08-09T13:47:26.650Z,28.20
2022-08-09T13:49:56.065Z,28.20
2022-08-09T13:52:24.616Z,28.50
2022-08-09T13:55:00.513Z,28.70
2022-08-09T13:57:40.828Z,28.70
2022-08-09T14:00:17.962Z,28.90
2022-08-09T14:03:04.237Z,28.80
2022-08-09T14:05:59.218Z,28.80
2022-08-09T14:08:22.260Z,28.90
2022-08-09T14:10:52.235Z,29.10
2022-08-09T14:14:16.249Z,29.20
2022-08-09T14:16:13.710Z,29.30
2022-08-09T14:18:45.853Z,29.20
2022-08-09T14:21:22.590Z,29.30
2022-08-09T14:23:56.577Z,29.20
2022-08-09T14:26:31.878Z,28.50
2022-08-09T14:29:02.770Z,28.10
2022-08-09T14:31:50.092Z,27.90
2022-08-09T14:34:27.510Z,27.90
2022-08-09T14:37:08.913Z,28.00
2022-08-09T14:39:46.374Z,28.30
2022-08-09T14:42:31.879Z,28.50
2022-08-09T14:46:53.937Z,28.80
2022-08-09T14:47:58.558Z,29.10
2022-08-09T14:50:34.630Z,29.30
2022-08-09T14:53:11.260Z,29.20
2022-08-09T14:55:41.976Z,29.30
2022-08-09T14:58:09.772Z,29.10
2022-08-09T15:00:37.342Z,29.20
2022-08-09T15:03:10.587Z,29.10
2022-08-09T15:05:38.183Z,29.10
2022-08-09T15:08:06.192Z,29.30
2022-08-09T15:10:37.959Z,29.30
2022-08-09T15:13:05.895Z,29.40
2022-08-09T15:15:39.291Z,29.40
2022-08-09T15:18:08.353Z,29.20
2022-08-09T15:21:57.379Z,29.10
2022-08-09T15:24:00.874Z,29.30
2022-08-09T15:26:19.055Z,29.20
2022-08-09T15:28:57.627Z,29.30
2022-08-09T15:31:40.898Z,29.50
2022-08-09T15:34:32.870Z,29.50
2022-08-09T15:36:58.070Z,29.60
2022-08-09T15:39:25.943Z,29.60
2022-08-09T15:42:02.779Z,29.60
2022-08-09T15:44:32.673Z,29.50
2022-08-09T15:47:00.943Z,29.30
2022-08-09T15:49:30.385Z,29.40
2022-08-09T15:52:03.406Z,29.30
2022-08-09T15:54:44.825Z,29.30
2022-08-09T15:57:18.757Z,29.30
2022-08-09T15:59:51.913Z,29.30
2022-08-09T16:02:19.410Z,29.40
2022-08-09T16:04:54.302Z,29.50
2022-08-09T16:07:21.332Z,29.40
2022-08-09T16:10:02.503Z,29.40
2022-08-09T16:12:32.840Z,29.30
2022-08-09T16:15:01.454Z,29.30
2022-08-09T16:17:28.952Z,29.10
2022-08-09T16:20:03.665Z,29.20
2022-08-09T16:22:33.122Z,29.30
2022-08-09T16:25:01.725Z,29.30
2022-08-09T16:27:30.013Z,29.40
2022-08-09T16:30:01.002Z,29.20
2022-08-09T16:32:53.357Z,29.20
2022-08-09T16:35:53.043Z,29.10
2022-08-09T16:38:09.693Z,28.70
2022-08-09T16:40:41.123Z,28.50
2022-08-09T16:43:08.555Z,28.60
2022-08-09T16:45:41.659Z,28.70
2022-08-09T16:48:39.387Z,28.80
2022-08-09T16:51:08.230Z,28.90
2022-08-09T16:53:36.684Z,28.90
2022-08-09T16:56:10.074Z,28.80
2022-08-09T16:58:39.833Z,28.70
2022-08-09T17:01:16.702Z,28.70
2022-08-09T17:03:46.356Z,28.60
2022-08-09T17:06:31.595Z,28.50
2022-08-09T17:09:17.885Z,28.50
2022-08-09T17:11:51.301Z,28.40
2022-08-09T17:14:27.090Z,28.30
2022-08-09T17:17:01.823Z,28.10
2022-08-09T17:20:06.047Z,28.20
2022-08-09T17:22:23.675Z,28.30
2022-08-09T17:24:54.894Z,28.30
2022-08-09T17:27:23.107Z,28.30
2022-08-09T17:29:51.515Z,28.30
2022-08-09T17:32:20.463Z,28.30
2022-08-09T17:35:11.263Z,28.30
2022-08-09T17:38:11.681Z,28.10
2022-08-09T17:40:33.839Z,28.00
2022-08-09T17:43:32.173Z,27.90
2022-08-09T17:46:03.069Z,27.90
2022-08-09T17:48:39.577Z,27.90
2022-08-09T17:51:18.736Z,27.90
2022-08-09T17:53:53.488Z,27.80
2022-08-09T17:56:27.039Z,27.80
2022-08-09T17:58:57.754Z,27.80
2022-08-09T18:01:25.181Z,27.70
2022-08-09T18:03:54.349Z,27.60
2022-08-09T18:06:30.947Z,27.50
2022-08-09T18:09:03.402Z,27.40
2022-08-09T18:11:46.810Z,27.30
2022-08-09T18:14:20.774Z,27.20
2022-08-09T18:16:49.113Z,27.00
2022-08-09T18:21:00.864Z,26.90
2022-08-09T18:22:06.215Z,26.90
2022-08-09T18:24:44.336Z,26.70
2022-08-09T18:27:33.651Z,26.60
2022-08-09T18:30:36.282Z,26.50
2022-08-09T18:32:54.337Z,26.30
2022-08-09T18:36:00.044Z,26.20
2022-08-09T18:38:09.612Z,26.10
2022-08-09T18:40:39.232Z,26.00
2022-08-09T18:43:06.917Z,25.80
2022-08-09T18:46:47.374Z,25.70
2022-08-09T18:48:20.784Z,25.70
2022-08-09T18:50:47.820Z,25.50
2022-08-09T18:53:16.381Z,25.40
2022-08-09T18:55:56.680Z,25.40
2022-08-09T18:58:32.090Z,25.30
2022-08-09T19:01:00.381Z,25.10
2022-08-09T19:03:28.743Z,25.10
2022-08-09T19:06:03.176Z,25.00
2022-08-09T19:08:31.209Z,24.90
2022-08-09T19:10:58.904Z,24.90
2022-08-09T19:13:49.729Z,24.90
2022-08-09T19:16:13.317Z,24.80
2022-08-09T19:18:48.587Z,24.70
2022-08-09T19:21:16.772Z,24.70
2022-08-09T19:24:39.526Z,24.60
2022-08-09T19:26:35.942Z,24.50
2022-08-09T19:29:09.753Z,24.50
2022-08-09T19:31:44.270Z,24.40
2022-08-09T19:34:21.636Z,24.30
2022-08-09T19:36:54.725Z,24.20
2022-08-09T19:39:42.862Z,24.10
2022-08-09T19:42:09.476Z,24.00
2022-08-09T19:44:42.823Z,23.80
2022-08-09T19:47:11.231Z,23.70
2022-08-09T19:50:07.188Z,23.50
2022-08-09T19:52:26.989Z,23.30
2022-08-09T19:54:54.105Z,23.10
2022-08-09T19:57:25.574Z,23.00
2022-08-09T19:59:59.105Z,22.30
2022-08-09T20:04:23.814Z,22.70
2022-08-09T20:05:25.070Z,22.60
2022-08-09T20:07:59.834Z,22.50
2022-08-09T20:10:34.453Z,22.30
2022-08-09T20:13:05.558Z,22.20
2022-08-09T20:16:37.862Z,22.20
2022-08-09T20:18:22.347Z,22.20
2022-08-09T20:20:55.097Z,22.10
2022-08-09T20:23:23.084Z,22.00
2022-08-09T20:25:52.357Z,21.90
2022-08-09T20:28:34.332Z,21.80
2022-08-09T20:31:13.804Z,21.70
2022-08-09T20:33:43.981Z,21.60
2022-08-09T20:36:12.494Z,21.50
2022-08-09T20:41:32.116Z,21.40
2022-08-09T20:44:02.624Z,21.30
2022-08-09T20:46:43.302Z,21.20
2022-08-09T20:49:16.117Z,21.20
2022-08-09T20:51:45.173Z,21.00
2022-08-09T20:54:18.131Z,21.00
2022-08-09T20:56:49.365Z,20.90
2022-08-09T20:59:17.795Z,20.80
2022-08-09T21:02:04.239Z,20.70
2022-08-09T21:05:52.521Z,20.70
2022-08-09T21:07:18.324Z,20.60
2022-08-09T21:09:56.113Z,20.60
2022-08-09T21:15:14.601Z,20.40
2022-08-09T21:18:23.978Z,20.30
2022-08-09T21:20:31.195Z,20.30
2022-08-09T21:22:59.717Z,20.20
2022-08-09T21:25:55.937Z,20.10
2022-08-09T21:28:34.209Z,20.00
2022-08-09T21:31:16.268Z,19.90
2022-08-09T21:33:51.257Z,19.90
2022-08-09T21:36:29.009Z,19.90
2022-08-09T21:38:58.619Z,19.90
2022-08-09T21:42:04.117Z,19.90
2022-08-09T21:44:32.781Z,19.90
2022-08-09T21:47:03.928Z,19.80
2022-08-09T21:49:39.160Z,19.80
2022-08-09T21:52:17.793Z,19.80
2022-08-09T21:54:59.530Z,19.70
2022-08-09T21:57:38.382Z,19.60
2022-08-09T22:00:32.245Z,19.60
2022-08-09T22:03:04.830Z,19.60
2022-08-09T22:05:37.625Z,19.50
2022-08-09T22:08:14.770Z,19.50
2022-08-09T22:11:50.076Z,19.50
2022-08-09T22:13:35.765Z,19.50
2022-08-09T22:16:09.255Z,19.40
2022-08-09T22:18:38.310Z,19.40
2022-08-09T22:21:09.293Z,19.30
2022-08-09T22:23:59.308Z,19.30
2022-08-09T22:26:35.144Z,19.20
2022-08-09T22:29:09.370Z,19.20
2022-08-09T22:31:37.660Z,19.20
2022-08-09T22:34:14.447Z,19.10
2022-08-09T22:36:46.437Z,19.10
2022-08-09T22:39:20.812Z,19.10
2022-08-09T22:42:03.971Z,19.10
2022-08-09T22:44:48.718Z,19.00
2022-08-09T22:48:29.866Z,18.90
2022-08-09T22:50:13.881Z,18.90
2022-08-09T22:52:41.764Z,18.80
2022-08-09T22:55:21.795Z,18.80
2022-08-09T22:58:00.074Z,18.80
2022-08-09T23:00:29.378Z,18.70
2022-08-09T23:02:56.814Z,18.70
2022-08-09T23:05:25.659Z,18.70
2022-08-09T23:08:29.308Z,18.60
2022-08-09T23:10:56.847Z,18.50
2022-08-09T23:13:23.798Z,18.30
2022-08-09T23:16:03.409Z,18.20
2022-08-09T23:18:31.175Z,18.20
2022-08-09T23:20:58.197Z,18.20
2022-08-09T23:23:25.127Z,18.10
2022-08-09T23:25:52.090Z,18.10
2022-08-09T23:28:19.083Z,18.10
2022-08-09T23:30:51.356Z,18.10
2022-08-09T23:33:22.722Z,18.00
2022-08-09T23:36:04.968Z,18.00
2022-08-09T23:38:34.839Z,17.90
2022-08-09T23:41:02.586Z,17.80
2022-08-09T23:43:29.450Z,17.70
2022-08-09T23:45:56.380Z,17.60
2022-08-09T23:48:23.333Z,17.60
2022-08-09T23:50:50.357Z,17.50
2022-08-09T23:53:17.307Z,17.50
2022-08-09T23:55:49.833Z,17.40
2022-08-09T23:58:26.159Z,17.40
